createdAt,value
2017-11-09T07:11:35.400Z,173.93
2017-11-09T07:14:07.293Z,179.70
2017-11-09T07:16:39.990Z,160.00
2017-11-09T07:19:11.885Z,159.23
2017-11-09T07:21:43.787Z,171.07
2017-11-09T07:24:16.441Z,157.17
2017-11-09T07:26:48.317Z,172.13
2017-11-09T07:29:20.973Z,163.93
2017-11-09T07:31:52.853Z,155.13
2017-11-09T07:34:25.505Z,168.77
2017-11-09T07:36:57.378Z,175.40
2017-11-09T07:39:29.270Z,174.53
2017-11-09T07:42:01.141Z,157.60
2017-11-09T07:44:33.047Z,159.77
2017-11-09T07:47:04.921Z,156.43
2017-11-09T07:49:36.921Z,148.40
2017-11-09T07:52:08.800Z,141.93
2017-11-09T07:54:40.707Z,143.03
2017-11-09T07:57:12.581Z,147.43
2017-11-09T07:59:45.261Z,151.47
2017-11-09T08:02:17.922Z,119.47
2017-11-09T08:04:50.581Z,130.33
2017-11-09T08:07:22.697Z,131.67
2017-11-09T08:09:54.605Z,131.40
2017-11-09T08:12:26.480Z,137.30
2017-11-09T08:14:58.375Z,123.93
2017-11-09T08:17:30.253Z,115.77
2017-11-09T08:20:02.189Z,118.33
2017-11-09T08:22:34.842Z,112.77
2017-11-09T08:25:07.042Z,109.20
2017-11-09T08:27:42.124Z,119.37
2017-11-09T08:30:15.129Z,128.03
2017-11-09T08:32:50.188Z,116.00
2017-11-09T08:35:22.854Z,124.87
2017-11-09T08:37:54.740Z,111.60
2017-11-09T08:40:26.653Z,114.40
2017-11-09T08:42:58.542Z,115.03
2017-11-09T08:45:31.217Z,108.63
2017-11-09T08:48:03.857Z,99.00
2017-11-09T08:50:35.767Z,102.37
2017-11-09T08:53:07.654Z,111.40
2017-11-09T08:55:39.556Z,110.90
2017-11-09T08:58:11.429Z,120.87
2017-11-09T09:00:43.347Z,127.37
2017-11-09T09:03:15.222Z,123.13
2017-11-09T09:05:47.133Z,110.87
2017-11-09T09:08:19.022Z,121.73
2017-11-09T09:10:50.929Z,112.17
2017-11-09T09:13:22.804Z,105.40
2017-11-09T09:15:54.733Z,122.60
2017-11-09T09:18:26.610Z,126.97
2017-11-09T09:20:58.514Z,102.37
2017-11-09T09:23:30.394Z,104.37
2017-11-09T09:26:02.297Z,112.23
2017-11-09T09:28:34.937Z,84.07
2017-11-09T09:31:06.832Z,94.83
2017-11-09T09:33:40.393Z,83.67
2017-11-09T09:36:13.437Z,99.93
2017-11-09T09:38:47.237Z,100.70
2017-11-09T09:41:19.904Z,91.97
2017-11-09T09:43:51.785Z,78.37
2017-11-09T09:46:24.477Z,90.57
2017-11-09T09:48:56.361Z,92.73
2017-11-09T09:51:28.270Z,78.50
2017-11-09T09:54:00.919Z,87.03
2017-11-09T09:56:32.819Z,84.37
2017-11-09T09:59:05.461Z,93.27
2017-11-09T10:01:37.386Z,87.60
2017-11-09T10:04:09.261Z,88.70
2017-11-09T10:06:41.149Z,95.70
2017-11-09T10:09:13.030Z,91.03
2017-11-09T10:11:45.681Z,98.53
2017-11-09T10:14:17.556Z,96.37
2017-11-09T10:16:49.466Z,98.57
2017-11-09T10:19:21.342Z,88.50
2017-11-09T10:21:53.246Z,94.00
2017-11-09T10:24:25.890Z,89.57
2017-11-09T10:26:57.805Z,99.13
2017-11-09T10:29:29.694Z,97.67
2017-11-09T10:32:02.040Z,99.60
2017-11-09T10:34:33.956Z,102.23
2017-11-09T10:37:05.882Z,96.10
2017-11-09T10:39:37.774Z,94.77
2017-11-09T10:42:09.698Z,95.00
2017-11-09T10:44:41.587Z,102.27
2017-11-09T10:47:13.482Z,106.30
2017-11-09T10:49:46.137Z,99.43
2017-11-09T10:52:18.049Z,90.30
2017-11-09T10:54:49.930Z,97.77
2017-11-09T10:57:21.826Z,94.97
2017-11-09T10:59:53.705Z,95.27
2017-11-09T11:02:26.401Z,87.07
2017-11-09T11:04:58.304Z,86.90
2017-11-09T11:07:30.230Z,81.40
2017-11-09T11:10:02.118Z,80.60
2017-11-09T11:12:34.245Z,91.83
2017-11-09T11:15:06.120Z,85.10
2017-11-09T11:17:38.032Z,90.70
2017-11-09T11:20:09.897Z,86.83
2017-11-09T11:22:41.800Z,77.63
2017-11-09T11:25:13.684Z,85.60
2017-11-09T11:27:45.593Z,84.87
2017-11-09T11:30:18.234Z,81.57
2017-11-09T11:32:50.144Z,80.90
2017-11-09T11:35:22.034Z,74.00
2017-11-09T11:37:53.930Z,65.97
2017-11-09T11:40:25.810Z,82.83
2017-11-09T11:42:58.493Z,88.00
2017-11-09T11:45:30.381Z,85.73
2017-11-09T11:48:02.278Z,81.27
2017-11-09T11:50:34.150Z,73.67
2017-11-09T11:53:06.087Z,71.57
2017-11-09T11:55:37.993Z,66.17
2017-11-09T11:58:10.677Z,79.60
2017-11-09T12:00:43.339Z,70.97
2017-11-09T12:03:15.240Z,74.33
2017-11-09T12:05:47.130Z,69.20
2017-11-09T12:08:19.041Z,74.73
2017-11-09T12:10:50.930Z,59.27
2017-11-09T12:13:22.821Z,65.87
2017-11-09T12:15:54.836Z,70.80
2017-11-09T12:18:26.728Z,63.87
2017-11-09T12:20:58.625Z,63.40
2017-11-09T12:23:31.297Z,58.73
2017-11-09T12:26:03.181Z,67.40
2017-11-09T12:28:35.861Z,58.27
2017-11-09T12:31:07.734Z,63.90
2017-11-09T12:33:39.644Z,58.53
2017-11-09T12:36:12.353Z,58.47
2017-11-09T12:38:50.059Z,58.83
2017-11-09T12:41:21.937Z,64.43
2017-11-09T12:43:53.846Z,59.87
2017-11-09T12:46:25.740Z,60.33
2017-11-09T12:48:58.406Z,66.53
2017-11-09T12:51:31.050Z,60.97
2017-11-09T12:54:02.957Z,65.90
2017-11-09T12:56:34.837Z,65.10
2017-11-09T12:59:06.728Z,62.23
2017-11-09T13:01:38.605Z,62.00
2017-11-09T13:04:10.512Z,62.57
2017-11-09T13:06:42.390Z,57.63
2017-11-09T13:09:14.301Z,59.27
2017-11-09T13:11:46.952Z,49.20
2017-11-09T13:14:18.861Z,56.43
2017-11-09T13:16:50.746Z,56.17
2017-11-09T13:19:22.667Z,68.70
2017-11-09T13:21:55.314Z,56.73
2017-11-09T13:24:27.225Z,65.47
2017-11-09T13:26:59.104Z,65.50
2017-11-09T13:29:31.039Z,68.07
2017-11-09T13:32:03.047Z,61.43
2017-11-09T13:34:35.782Z,66.07
2017-11-09T13:37:08.413Z,63.03
2017-11-09T13:39:40.317Z,60.50
2017-11-09T13:42:12.953Z,60.17
2017-11-09T13:44:44.864Z,67.40
2017-11-09T13:47:16.740Z,63.60
2017-11-09T13:49:48.649Z,71.57
2017-11-09T13:52:20.525Z,68.50
2017-11-09T13:54:53.430Z,64.93
2017-11-09T13:57:25.303Z,62.93
2017-11-09T13:59:57.202Z,63.37
2017-11-09T14:02:29.080Z,66.50
2017-11-09T14:05:01.749Z,62.60
2017-11-09T14:07:34.456Z,65.63
2017-11-09T14:10:06.378Z,55.83
2017-11-09T14:12:38.258Z,65.87
2017-11-09T14:15:10.169Z,65.00
2017-11-09T14:17:42.058Z,55.40
2017-11-09T14:20:13.952Z,50.40
2017-11-09T14:22:46.594Z,57.77
2017-11-09T14:25:18.484Z,68.93
2017-11-09T14:27:51.129Z,58.07
2017-11-09T14:30:23.801Z,63.23
2017-11-09T14:32:55.681Z,59.10
2017-11-09T14:35:27.592Z,56.10
2017-11-09T14:37:59.477Z,61.03
2017-11-09T14:40:31.444Z,60.00
2017-11-09T14:43:03.330Z,67.43
2017-11-09T14:45:35.240Z,59.00
2017-11-09T14:48:07.122Z,54.07
2017-11-09T14:50:39.038Z,60.00
2017-11-09T14:53:11.678Z,58.67
2017-11-09T14:55:49.421Z,62.37
2017-11-09T14:58:21.307Z,58.43
2017-11-09T15:00:53.213Z,63.37
2017-11-09T15:03:25.081Z,56.87
2017-11-09T15:05:57.738Z,58.13
2017-11-09T15:08:29.609Z,65.73
2017-11-09T15:11:01.630Z,57.03
2017-11-09T15:13:33.500Z,57.97
2017-11-09T15:16:05.471Z,59.27
2017-11-09T15:18:37.367Z,60.30
2017-11-09T15:21:10.037Z,51.57
2017-11-09T15:23:41.914Z,65.33
2017-11-09T15:26:13.820Z,58.03
2017-11-09T15:28:45.697Z,61.40
2017-11-09T15:31:17.587Z,65.13
2017-11-09T15:33:50.257Z,55.10
2017-11-09T15:36:22.180Z,63.57
2017-11-09T15:38:54.069Z,60.73
2017-11-09T15:41:25.957Z,53.53
2017-11-09T15:43:58.603Z,58.27
2017-11-09T15:46:30.522Z,58.20
2017-11-09T15:49:02.406Z,62.13
2017-11-09T15:51:34.289Z,57.37
2017-11-09T15:54:06.162Z,52.90
2017-11-09T15:56:38.816Z,53.23
2017-11-09T15:59:10.722Z,58.70
2017-11-09T16:01:43.390Z,55.17
2017-11-09T16:04:16.038Z,52.20
2017-11-09T16:06:47.941Z,51.70
2017-11-09T16:09:19.817Z,52.83
2017-11-09T16:11:51.838Z,49.07
2017-11-09T16:14:23.712Z,49.73
2017-11-09T16:16:56.398Z,51.33
2017-11-09T16:19:29.037Z,57.27
2017-11-09T16:22:00.941Z,51.17
2017-11-09T16:24:32.817Z,52.37
2017-11-09T16:27:04.721Z,52.27
2017-11-09T16:29:36.616Z,49.73
2017-11-09T16:32:09.285Z,52.60
2017-11-09T16:34:41.936Z,57.53
2017-11-09T16:37:13.821Z,49.23
2017-11-09T16:39:46.452Z,49.40
2017-11-09T16:42:18.369Z,53.00
2017-11-09T16:44:51.950Z,50.57
2017-11-09T16:47:23.840Z,55.73
2017-11-09T16:49:55.720Z,48.17
2017-11-09T16:52:27.633Z,54.67
2017-11-09T16:55:00.269Z,54.97
2017-11-09T16:57:32.172Z,55.73
2017-11-09T17:00:04.837Z,56.13
2017-11-09T17:02:36.752Z,56.50
2017-11-09T17:05:08.626Z,53.90
2017-11-09T17:07:40.518Z,53.90
2017-11-09T17:10:12.407Z,62.20
2017-11-09T17:12:45.072Z,56.17
2017-11-09T17:15:16.948Z,49.70
2017-11-09T17:17:48.861Z,53.67
2017-11-09T17:20:20.739Z,51.87
2017-11-09T17:22:52.662Z,58.70
2017-11-09T17:25:24.550Z,51.97
2017-11-09T17:27:56.450Z,52.20
2017-11-09T17:30:29.091Z,47.97
2017-11-09T17:33:00.985Z,52.33
2017-11-09T17:35:32.858Z,50.47
2017-11-09T17:38:04.782Z,54.80
2017-11-09T17:40:36.669Z,53.70
2017-11-09T17:43:09.350Z,57.20
2017-11-09T17:45:41.993Z,53.10
2017-11-09T17:48:13.904Z,50.63
2017-11-09T17:50:45.785Z,56.67
2017-11-09T17:53:17.693Z,49.97
2017-11-09T17:55:50.334Z,58.90
2017-11-09T17:58:22.293Z,55.53
2017-11-09T18:00:54.168Z,55.57
2017-11-09T18:03:26.080Z,55.40
2017-11-09T18:05:58.234Z,56.47
2017-11-09T18:08:30.916Z,51.03
2017-11-09T18:11:03.556Z,56.90
2017-11-09T18:13:35.486Z,55.03
2017-11-09T18:16:07.366Z,50.77
2017-11-09T18:18:39.281Z,52.77
2017-11-09T18:21:11.162Z,51.50
2017-11-09T18:23:43.081Z,50.77
2017-11-09T18:26:15.730Z,50.70
2017-11-09T18:28:47.625Z,53.70
2017-11-09T18:31:20.277Z,51.17
2017-11-09T18:33:52.174Z,51.80
2017-11-09T18:36:24.821Z,50.30
2017-11-09T18:38:56.876Z,52.93
2017-11-09T18:41:28.752Z,50.13
2017-11-09T18:44:00.662Z,50.90
2017-11-09T18:46:32.550Z,48.53
2017-11-09T18:49:04.464Z,47.77
2017-11-09T18:51:36.378Z,50.77
2017-11-09T18:54:08.278Z,49.10
2017-11-09T18:56:40.165Z,59.47
2017-11-09T18:59:12.061Z,49.40
2017-11-09T19:01:43.937Z,46.23
2017-11-09T19:04:15.833Z,55.10
2017-11-09T19:06:47.727Z,51.93
2017-11-09T19:09:19.620Z,51.03
2017-11-09T19:11:52.272Z,48.33
2017-11-09T19:14:24.178Z,53.93
2017-11-09T19:16:56.073Z,53.47
2017-11-09T19:19:27.985Z,52.60
2017-11-09T19:22:00.634Z,53.97
2017-11-09T19:24:32.545Z,53.43
2017-11-09T19:27:04.430Z,51.57
2017-11-09T19:29:36.341Z,45.30
2017-11-09T19:32:08.980Z,50.13
2017-11-09T19:34:40.870Z,48.03
2017-11-09T19:37:12.761Z,51.13
2017-11-09T19:39:44.675Z,47.87
2017-11-09T19:42:16.558Z,51.00
2017-11-09T19:44:49.239Z,46.90
2017-11-09T19:47:21.878Z,49.10
2017-11-09T19:49:53.788Z,49.60
2017-11-09T19:52:26.680Z,45.40
2017-11-09T19:54:58.596Z,44.47
2017-11-09T19:57:30.475Z,48.03
2017-11-09T20:00:02.386Z,55.50
2017-11-09T20:02:34.275Z,44.23
2017-11-09T20:05:06.175Z,51.30
2017-11-09T20:07:38.826Z,47.63
2017-11-09T20:10:10.729Z,47.60
2017-11-09T20:12:42.637Z,50.70
2017-11-09T20:15:14.530Z,47.07
2017-11-09T20:17:47.169Z,42.57
2017-11-09T20:20:19.094Z,44.57
2017-11-09T20:22:50.974Z,44.13
2017-11-09T20:25:22.891Z,42.23
2017-11-09T20:27:55.533Z,44.43
2017-11-09T20:30:27.430Z,42.43
2017-11-09T20:33:00.070Z,40.73
2017-11-09T20:35:31.963Z,40.57
2017-11-09T20:38:04.600Z,45.27
2017-11-09T20:40:36.505Z,41.10
2017-11-09T20:43:09.149Z,32.17
2017-11-09T20:45:41.065Z,45.57
2017-11-09T20:48:12.945Z,39.00
2017-11-09T20:50:44.837Z,40.43
2017-11-09T20:53:16.714Z,43.60
2017-11-09T20:55:49.373Z,43.33
2017-11-09T20:58:21.265Z,43.17
2017-11-09T21:00:53.189Z,45.67
2017-11-09T21:03:25.058Z,44.37
2017-11-09T21:05:56.973Z,39.53
2017-11-09T21:08:28.853Z,37.37
2017-11-09T21:11:00.765Z,38.77
2017-11-09T21:13:32.643Z,39.67
2017-11-09T21:16:04.533Z,43.47
2017-11-09T21:18:36.404Z,41.63
2017-11-09T21:21:08.302Z,40.80
2017-11-09T21:23:40.946Z,38.87
2017-11-09T21:26:12.837Z,35.20
2017-11-09T21:28:45.485Z,36.33
2017-11-09T21:31:17.401Z,40.47
2017-11-09T21:33:49.293Z,41.10
2017-11-09T21:36:21.304Z,40.83
2017-11-09T21:38:53.940Z,37.77
2017-11-09T21:41:26.011Z,40.40
2017-11-09T21:43:57.881Z,37.30
2017-11-09T21:46:29.793Z,35.43
2017-11-09T21:49:01.670Z,36.43
2017-11-09T21:51:33.566Z,37.63
2017-11-09T21:54:05.446Z,36.93
2017-11-09T21:56:38.121Z,33.43
2017-11-09T21:59:10.761Z,40.80
2017-11-09T22:01:42.649Z,38.67
2017-11-09T22:04:14.534Z,36.93
2017-11-09T22:06:46.446Z,37.67
2017-11-09T22:09:18.321Z,39.07
2017-11-09T22:11:50.222Z,40.80
2017-11-09T22:14:22.093Z,42.07
2017-11-09T22:16:54.001Z,40.60
2017-11-09T22:19:25.884Z,37.97
2017-11-09T22:21:58.556Z,38.73
2017-11-09T22:24:31.193Z,38.27
2017-11-09T22:27:03.116Z,37.90
2017-11-09T22:29:34.989Z,37.30
2017-11-09T22:32:06.930Z,38.63
2017-11-09T22:34:38.824Z,45.17
2017-11-09T22:37:10.735Z,40.47
2017-11-09T22:39:42.619Z,36.03
2017-11-09T22:42:14.529Z,38.23
2017-11-09T22:44:46.413Z,36.20
2017-11-09T22:47:18.321Z,36.07
